createdAt,value
2023-05-22T00:00:42.063Z,84.87
2023-05-22T00:02:43.434Z,84.81
2023-05-22T00:04:48.295Z,86.02
2023-05-22T00:06:51.319Z,86.87
2023-05-22T00:08:52.326Z,87.28
2023-05-22T00:10:53.087Z,86.57
2023-05-22T00:12:54.007Z,87.08
2023-05-22T00:14:54.953Z,87.62
2023-05-22T00:16:55.697Z,87.52
2023-05-22T00:18:57.367Z,87.77
2023-05-22T00:20:58.107Z,87.97
2023-05-22T00:22:59.179Z,88.02
2023-05-22T00:25:00.746Z,87.77
2023-05-22T00:27:02.274Z,87.66
2023-05-22T00:29:03.325Z,87.66
2023-05-22T00:31:04.241Z,88.07
2023-05-22T00:33:09.586Z,88.88
2023-05-22T00:36:01.860Z,89.18
2023-05-22T00:38:03.060Z,89.73
2023-05-22T00:40:04.423Z,90.24
2023-05-22T00:42:05.489Z,90.08
2023-05-22T00:44:05.993Z,90.58
2023-05-22T00:46:06.631Z,91.19
2023-05-22T00:48:07.167Z,91.70
2023-05-22T00:50:08.819Z,91.94
2023-05-22T00:52:09.583Z,92.25
2023-05-22T00:54:14.682Z,92.25
2023-05-22T00:56:18.249Z,92.70
2023-05-22T00:58:19.470Z,92.80
2023-05-22T01:00:20.444Z,92.76
2023-05-22T01:02:21.128Z,92.96
2023-05-22T01:04:21.386Z,92.96
2023-05-22T01:06:21.731Z,92.70
2023-05-22T01:08:22.146Z,92.49
2023-05-22T01:10:22.462Z,93.10
2023-05-22T01:12:22.907Z,93.41
2023-05-22T01:14:23.205Z,93.41
2023-05-22T01:16:23.700Z,93.41
2023-05-22T01:18:24.014Z,92.94
2023-05-22T01:20:24.409Z,92.64
2023-05-22T01:22:24.775Z,92.44
2023-05-22T01:24:25.073Z,92.84
2023-05-22T01:26:25.469Z,92.74
2023-05-22T01:28:25.778Z,92.94
2023-05-22T01:30:26.117Z,92.84
2023-05-22T01:32:26.518Z,92.64
2023-05-22T01:34:26.905Z,92.33
2023-05-22T01:36:27.269Z,92.84
2023-05-22T01:38:27.585Z,93.25
2023-05-22T01:40:28.004Z,93.05
2023-05-22T01:42:28.306Z,92.94
2023-05-22T01:44:28.625Z,93.35
2023-05-22T01:46:28.987Z,93.15
2023-05-22T01:48:29.415Z,93.09
2023-05-22T01:50:29.806Z,93.19
2023-05-22T01:52:30.404Z,93.49
2023-05-22T01:54:30.890Z,94.61
2023-05-22T01:56:31.255Z,95.42
2023-05-22T01:58:31.977Z,95.22
2023-05-22T02:00:32.523Z,94.82
2023-05-22T02:02:33.166Z,94.61
2023-05-22T02:04:33.779Z,94.41
2023-05-22T02:06:34.250Z,94.51
2023-05-22T02:08:34.845Z,94.76
2023-05-22T02:10:35.209Z,95.47
2023-05-22T02:12:35.581Z,95.47
2023-05-22T02:14:35.970Z,95.57
2023-05-22T02:16:36.377Z,95.51
2023-05-22T02:18:36.782Z,95.31
2023-05-22T02:20:37.313Z,95.62
2023-05-22T02:22:37.665Z,96.02
2023-05-22T02:24:38.092Z,96.53
2023-05-22T02:26:38.379Z,96.02
2023-05-22T02:28:38.786Z,95.92
2023-05-22T02:30:39.320Z,96.33
2023-05-22T02:32:39.980Z,96.38
2023-05-22T02:34:40.713Z,96.59
2023-05-22T02:36:41.339Z,96.53
2023-05-22T02:38:41.964Z,96.53
2023-05-22T02:40:42.525Z,96.53
2023-05-22T02:42:42.965Z,96.83
2023-05-22T02:44:43.685Z,97.24
2023-05-22T02:46:44.534Z,97.24
2023-05-22T02:48:45.669Z,97.08
2023-05-22T02:50:46.502Z,97.60
2023-05-22T02:52:46.860Z,97.80
2023-05-22T02:54:47.190Z,97.89
2023-05-22T02:56:47.580Z,98.00
2023-05-22T02:58:47.987Z,98.20
2023-05-22T03:00:48.421Z,98.41
2023-05-22T03:02:49.114Z,98.61
2023-05-22T03:04:49.575Z,98.55
2023-05-22T03:06:49.974Z,98.86
2023-05-22T03:08:50.321Z,98.96
2023-05-22T03:10:50.680Z,99.06
2023-05-22T03:12:50.992Z,99.16
2023-05-22T03:14:51.296Z,99.27
2023-05-22T03:16:51.725Z,99.47
2023-05-22T03:18:52.134Z,99.52
2023-05-22T03:20:52.443Z,99.72
2023-05-22T03:22:52.789Z,99.77
2023-05-22T03:24:53.095Z,99.98
2023-05-22T03:26:53.417Z,99.99
2023-05-22T03:28:58.747Z,99.82
2023-05-22T03:30:59.073Z,99.72
2023-05-22T03:32:59.685Z,99.82
2023-05-22T03:35:00.146Z,99.99
2023-05-22T03:37:00.534Z,99.99
2023-05-22T03:39:00.891Z,99.99
2023-05-22T03:41:01.277Z,99.99
2023-05-22T03:43:01.586Z,99.99
2023-05-22T03:45:01.996Z,99.99
2023-05-22T03:47:02.376Z,99.99
2023-05-22T03:49:02.782Z,99.99
2023-05-22T03:51:03.099Z,99.99
2023-05-22T03:53:03.434Z,99.99
2023-05-22T03:55:03.840Z,99.99
2023-05-22T03:57:04.222Z,99.99
2023-05-22T03:59:48.424Z,99.99
2023-05-22T04:01:48.906Z,99.99
2023-05-22T04:03:49.412Z,99.99
2023-05-22T04:05:49.879Z,99.99
2023-05-22T04:07:50.340Z,99.99
2023-05-22T04:09:50.714Z,99.99
2023-05-22T04:11:51.205Z,99.99
2023-05-22T04:13:51.581Z,99.99
2023-05-22T04:15:51.905Z,99.99
2023-05-22T04:17:52.372Z,99.99
2023-05-22T04:19:52.722Z,99.94
2023-05-22T04:21:53.027Z,99.84
2023-05-22T04:23:53.295Z,99.74
2023-05-22T04:25:53.655Z,99.49
2023-05-22T04:27:53.906Z,99.28
2023-05-22T04:29:59.093Z,98.97
2023-05-22T04:32:43.249Z,98.88
2023-05-22T04:34:43.607Z,98.77
2023-05-22T04:36:44.171Z,98.68
2023-05-22T04:38:44.662Z,98.37
2023-05-22T04:40:45.391Z,98.16
2023-05-22T04:42:45.707Z,97.81
2023-05-22T04:44:46.097Z,97.31
2023-05-22T04:46:46.540Z,96.90
2023-05-22T04:48:46.808Z,96.70
2023-05-22T04:52:25.816Z,96.15
2023-05-22T04:54:26.185Z,95.94
2023-05-22T04:56:35.522Z,95.43
2023-05-22T04:58:31.822Z,95.19
2023-05-22T05:00:32.334Z,94.68
2023-05-22T05:02:32.970Z,94.38
2023-05-22T05:04:35.972Z,94.13
2023-05-22T05:06:36.313Z,93.93
2023-05-22T05:08:36.934Z,93.62
2023-05-22T05:10:37.617Z,93.38
2023-05-22T05:12:38.125Z,93.27
2023-05-22T05:14:38.518Z,93.07
2023-05-22T05:16:38.913Z,93.03
2023-05-22T05:18:39.174Z,93.03
2023-05-22T05:20:39.818Z,92.83
2023-05-22T05:22:40.330Z,92.38
2023-05-22T05:24:40.632Z,92.28
2023-05-22T05:26:41.280Z,91.73
2023-05-22T05:28:41.690Z,91.63
2023-05-22T05:31:26.234Z,91.28
2023-05-22T05:33:26.485Z,90.78
2023-05-22T05:35:26.754Z,90.53
2023-05-22T05:37:27.228Z,90.43
2023-05-22T05:39:27.932Z,90.49
2023-05-22T05:41:28.729Z,89.98
2023-05-22T05:43:29.127Z,90.08
2023-05-22T05:45:29.446Z,90.34
2023-05-22T05:47:29.882Z,89.84
2023-05-22T05:49:30.377Z,89.74
2023-05-22T05:51:30.860Z,89.39
2023-05-22T05:53:31.367Z,89.09
2023-05-22T05:55:32.716Z,88.48
2023-05-22T05:57:34.652Z,88.24
2023-05-22T05:59:35.087Z,87.63
2023-05-22T06:01:35.546Z,87.94
2023-05-22T06:03:36.091Z,87.40
2023-05-22T06:05:36.552Z,87.40
2023-05-22T06:07:36.944Z,87.29
2023-05-22T06:09:37.397Z,86.95
2023-05-22T06:11:37.745Z,86.55
2023-05-22T06:13:38.128Z,86.44
2023-05-22T06:15:38.433Z,86.04
2023-05-22T06:17:38.837Z,85.30
2023-05-22T06:19:39.162Z,84.69
2023-05-22T06:21:39.480Z,84.75
2023-05-22T06:23:39.762Z,84.15
2023-05-22T06:25:40.114Z,84.35
2023-05-22T06:27:40.397Z,83.75
2023-05-22T06:29:40.794Z,84.11
2023-05-22T06:31:41.313Z,84.51
2023-05-22T06:33:41.696Z,83.61
2023-05-22T06:35:42.047Z,83.26
2023-05-22T06:37:42.418Z,83.26
2023-05-22T06:39:42.843Z,83.17
2023-05-22T06:41:43.228Z,82.86
2023-05-22T06:43:43.495Z,82.56
2023-05-22T06:45:43.887Z,82.42
2023-05-22T06:47:44.250Z,81.72
2023-05-22T06:49:44.614Z,81.52
2023-05-22T06:51:49.729Z,81.72
2023-05-22T06:53:50.136Z,81.88
2023-05-22T06:55:50.385Z,81.78
2023-05-22T06:57:50.816Z,81.88
2023-05-22T06:59:51.118Z,81.84
2023-05-22T07:01:51.448Z,81.64
2023-05-22T07:03:51.701Z,81.94
2023-05-22T07:05:52.088Z,81.10
2023-05-22T07:07:52.376Z,80.70
2023-05-22T07:09:52.674Z,80.66
2023-05-22T07:11:53.258Z,78.85
2023-05-22T07:13:53.565Z,78.35
2023-05-22T07:15:53.842Z,78.31
2023-05-22T07:17:54.215Z,77.51
2023-05-22T07:19:54.503Z,77.48
2023-05-22T07:21:54.811Z,77.48
2023-05-22T07:23:55.470Z,75.47
2023-05-22T07:25:55.706Z,76.07
2023-05-22T07:27:56.024Z,74.54
2023-05-22T07:29:56.338Z,73.13
2023-05-22T07:31:56.730Z,74.33
2023-05-22T07:33:57.040Z,74.43
2023-05-22T07:35:57.362Z,74.43
2023-05-22T07:37:57.722Z,73.57
2023-05-22T07:39:58.005Z,73.67
2023-05-22T07:41:59.447Z,74.03
2023-05-22T07:44:00.498Z,73.83
2023-05-22T07:46:00.843Z,73.53
2023-05-22T07:48:01.321Z,72.80
2023-05-22T07:50:01.634Z,72.80
2023-05-22T07:52:01.912Z,72.50
2023-05-22T07:54:02.252Z,71.56
2023-05-22T07:56:02.544Z,71.66
2023-05-22T07:58:02.829Z,71.53
2023-05-22T08:00:03.132Z,70.92
2023-05-22T08:02:03.465Z,69.93
2023-05-22T08:04:03.888Z,70.92
2023-05-22T08:06:04.513Z,69.89
2023-05-22T08:08:04.867Z,70.29
2023-05-22T08:10:05.131Z,70.29
2023-05-22T08:12:05.438Z,69.36
2023-05-22T08:14:08.004Z,69.76
2023-05-22T08:16:08.259Z,69.56
2023-05-22T08:18:08.679Z,68.96
2023-05-22T08:20:09.713Z,69.46
2023-05-22T08:22:10.070Z,69.56
2023-05-22T08:24:10.415Z,68.66
2023-05-22T08:26:10.782Z,69.46
2023-05-22T08:28:11.147Z,69.93
2023-05-22T08:30:11.402Z,69.32
2023-05-22T08:32:11.852Z,68.63
2023-05-22T08:34:12.102Z,68.79
2023-05-22T08:36:12.397Z,69.09
2023-05-22T08:38:12.740Z,67.49
2023-05-22T08:40:13.186Z,67.76
2023-05-22T08:42:14.171Z,66.96
2023-05-22T08:44:14.483Z,67.46
2023-05-22T08:46:14.837Z,66.96
2023-05-22T08:48:19.945Z,69.32
2023-05-22T08:50:20.229Z,67.33
2023-05-22T08:52:20.578Z,67.60
2023-05-22T08:54:20.900Z,66.67
2023-05-22T08:56:21.327Z,64.84
2023-05-22T08:58:21.585Z,64.84
2023-05-22T09:00:21.892Z,63.12
2023-05-22T09:02:22.257Z,62.62
2023-05-22T09:04:23.312Z,63.52
2023-05-22T09:06:23.808Z,62.79
2023-05-22T09:08:24.286Z,62.46
2023-05-22T09:10:24.584Z,62.96
2023-05-22T09:12:25.307Z,60.97
2023-05-22T09:14:25.609Z,62.93
2023-05-22T09:16:26.165Z,61.04
2023-05-22T09:18:26.478Z,61.34
2023-05-22T09:20:26.827Z,60.35
2023-05-22T09:22:27.163Z,61.14
2023-05-22T09:24:32.331Z,58.95
2023-05-22T09:26:32.936Z,58.65
2023-05-22T09:28:33.282Z,60.55
2023-05-22T09:30:33.544Z,58.95
2023-05-22T09:32:33.935Z,59.69
2023-05-22T09:34:34.344Z,59.86
2023-05-22T09:36:34.633Z,58.25
2023-05-22T09:38:34.927Z,58.84
2023-05-22T09:40:35.373Z,58.22
2023-05-22T09:42:35.668Z,57.13
2023-05-22T09:44:35.939Z,55.74
2023-05-22T09:46:36.252Z,56.51
2023-05-22T09:48:36.811Z,54.75
2023-05-22T09:50:37.209Z,54.42
2023-05-22T09:52:37.514Z,54.30
2023-05-22T09:54:37.860Z,54.10
2023-05-22T09:56:39.874Z,54.86
2023-05-22T09:58:40.585Z,54.07
2023-05-22T10:00:41.117Z,52.36
2023-05-22T10:02:41.574Z,53.35
2023-05-22T10:04:42.032Z,52.56
2023-05-22T10:06:42.363Z,54.61
2023-05-22T10:08:42.702Z,51.75
2023-05-22T10:10:43.181Z,51.72
2023-05-22T10:12:43.609Z,51.84
2023-05-22T10:14:43.881Z,52.61
2023-05-22T10:16:44.198Z,51.92
2023-05-22T10:18:44.610Z,52.61
2023-05-22T10:20:45.021Z,52.07
2023-05-22T10:22:45.412Z,53.83
2023-05-22T10:24:45.713Z,53.70
2023-05-22T10:26:46.236Z,54.67
2023-05-22T10:28:46.524Z,54.37
2023-05-22T10:30:47.176Z,53.97
2023-05-22T10:32:47.660Z,53.67
2023-05-22T10:34:47.995Z,53.38
2023-05-22T10:36:48.429Z,53.41
2023-05-22T10:38:48.661Z,54.99
2023-05-22T10:40:49.226Z,54.72
2023-05-22T10:42:49.554Z,56.13
2023-05-22T10:44:49.872Z,55.83
2023-05-22T10:46:50.193Z,56.21
2023-05-22T10:48:50.460Z,56.68
2023-05-22T10:50:50.759Z,55.85
2023-05-22T10:52:51.190Z,55.30
2023-05-22T10:54:51.615Z,54.02
2023-05-22T10:56:51.892Z,54.49
2023-05-22T10:58:52.225Z,53.89
2023-05-22T11:00:52.578Z,53.99
2023-05-22T11:02:54.067Z,53.67
2023-05-22T11:04:55.472Z,54.63
2023-05-22T11:06:55.743Z,53.52
2023-05-22T11:08:56.215Z,50.56
2023-05-22T11:10:56.471Z,50.88
2023-05-22T11:12:56.898Z,51.40
2023-05-22T11:14:57.154Z,52.04
2023-05-22T11:16:57.577Z,52.61
2023-05-22T11:18:59.004Z,51.10
2023-05-22T11:21:00.907Z,52.48
2023-05-22T11:23:01.201Z,51.67
2023-05-22T11:25:01.652Z,51.42
2023-05-22T11:27:01.928Z,48.66
2023-05-22T11:29:02.268Z,48.78
2023-05-22T11:31:02.567Z,50.56
2023-05-22T11:33:03.090Z,50.68
2023-05-22T11:35:03.462Z,51.23
2023-05-22T11:37:03.792Z,51.50
2023-05-22T11:39:04.108Z,49.43
2023-05-22T11:41:09.413Z,53.44
2023-05-22T11:43:09.773Z,50.88
2023-05-22T11:45:10.399Z,50.46
2023-05-22T11:47:10.776Z,50.07
2023-05-22T11:49:11.062Z,50.83
2023-05-22T11:51:11.465Z,51.81
2023-05-22T11:53:11.759Z,50.63
2023-05-22T11:55:12.096Z,49.04
2023-05-22T11:57:12.522Z,50.21
2023-05-22T11:59:14.315Z,50.39
2023-05-22T12:01:14.699Z,48.61
2023-05-22T12:03:15.087Z,47.63
2023-05-22T12:05:15.407Z,48.79
2023-05-22T12:07:15.681Z,47.91
2023-05-22T12:09:16.134Z,47.91
2023-05-22T12:11:16.498Z,48.18
2023-05-22T12:13:16.917Z,49.95
2023-05-22T12:15:17.264Z,48.37
2023-05-22T12:17:17.517Z,49.82
2023-05-22T12:19:17.989Z,49.04
2023-05-22T12:21:18.756Z,47.07
2023-05-22T12:23:19.059Z,47.09
2023-05-22T12:25:19.351Z,47.98
2023-05-22T12:27:19.713Z,47.71
2023-05-22T12:29:20.134Z,47.39
2023-05-22T12:31:20.750Z,47.19
2023-05-22T12:33:21.022Z,47.49
2023-05-22T12:35:21.725Z,47.17
2023-05-22T12:37:22.074Z,49.70
2023-05-22T12:39:22.329Z,47.71
2023-05-22T12:41:22.667Z,46.90
2023-05-22T12:43:23.106Z,46.48
2023-05-22T12:45:23.599Z,46.95
2023-05-22T12:47:24.157Z,47.61
2023-05-22T12:50:07.879Z,44.35
2023-05-22T12:52:08.254Z,45.34
2023-05-22T12:54:08.694Z,44.40
2023-05-22T12:56:09.134Z,44.01
2023-05-22T12:58:09.523Z,44.08
2023-05-22T13:00:09.785Z,42.61
2023-05-22T13:02:11.795Z,43.10
2023-05-22T13:04:55.455Z,42.63
2023-05-22T13:06:56.228Z,43.22
2023-05-22T13:08:57.038Z,42.61
2023-05-22T13:10:57.737Z,42.86
2023-05-22T13:12:58.110Z,42.74
2023-05-22T13:14:58.354Z,42.23
2023-05-22T13:16:58.741Z,41.23
2023-05-22T13:18:59.150Z,43.66
2023-05-22T13:21:00.193Z,40.82
2023-05-22T13:23:00.618Z,41.89
2023-05-22T13:25:00.911Z,41.19
2023-05-22T13:27:01.207Z,40.09
2023-05-22T13:29:01.532Z,39.80
2023-05-22T13:31:01.842Z,38.84
2023-05-22T13:33:02.286Z,39.31
2023-05-22T13:35:02.710Z,38.14
2023-05-22T13:37:03.146Z,38.82
2023-05-22T13:39:03.454Z,36.77
2023-05-22T13:41:03.726Z,36.87
2023-05-22T13:43:04.402Z,37.85
2023-05-22T13:45:04.681Z,38.12
2023-05-22T13:47:05.168Z,39.08
2023-05-22T13:49:05.466Z,39.26
2023-05-22T13:51:05.932Z,36.83
2023-05-22T13:53:06.162Z,39.49
2023-05-22T13:55:06.555Z,39.88
2023-05-22T13:57:06.913Z,39.96
2023-05-22T13:59:09.327Z,37.21
2023-05-22T14:01:09.997Z,38.77
2023-05-22T14:03:10.397Z,37.38
2023-05-22T14:05:10.810Z,35.14
2023-05-22T14:07:11.219Z,36.21
2023-05-22T14:09:11.459Z,33.77
2023-05-22T14:11:11.863Z,34.34
2023-05-22T14:13:12.130Z,34.63
2023-05-22T14:15:12.407Z,34.96
2023-05-22T14:17:12.806Z,37.11
2023-05-22T14:19:13.115Z,35.07
2023-05-22T14:21:13.432Z,37.41
2023-05-22T14:23:13.897Z,35.17
2023-05-22T14:25:14.199Z,35.50
2023-05-22T14:27:14.674Z,36.80
2023-05-22T14:29:14.913Z,37.41
2023-05-22T14:31:15.283Z,39.22
2023-05-22T14:33:15.666Z,39.01
2023-05-22T14:35:15.941Z,38.93
2023-05-22T14:37:16.408Z,39.76
2023-05-22T14:39:16.777Z,41.35
2023-05-22T14:41:17.151Z,41.09
2023-05-22T14:43:17.473Z,41.22
2023-05-22T14:45:18.591Z,42.02
2023-05-22T14:47:18.933Z,41.43
2023-05-22T14:49:19.264Z,41.04
2023-05-22T14:51:19.765Z,44.48
2023-05-22T14:53:20.073Z,42.81
2023-05-22T14:55:20.502Z,44.88
2023-05-22T14:57:20.821Z,46.30
2023-05-22T14:59:21.155Z,46.50
2023-05-22T15:01:21.536Z,45.63
2023-05-22T15:03:21.856Z,47.08
2023-05-22T15:05:22.326Z,48.09
2023-05-22T15:07:29.261Z,48.41
2023-05-22T15:09:27.905Z,48.71
2023-05-22T15:11:28.410Z,48.53
2023-05-22T15:13:28.690Z,49.44
2023-05-22T15:15:29.097Z,49.05
2023-05-22T15:17:29.541Z,48.77
2023-05-22T15:19:30.131Z,49.37
2023-05-22T15:21:30.487Z,49.77
2023-05-22T15:23:30.814Z,49.27
2023-05-22T15:25:31.123Z,48.60
2023-05-22T15:27:31.547Z,47.81
2023-05-22T15:29:31.807Z,48.03
2023-05-22T15:31:32.224Z,48.63
2023-05-22T15:33:32.476Z,49.52
2023-05-22T15:35:34.476Z,49.89
2023-05-22T15:37:34.796Z,51.18
2023-05-22T15:39:35.109Z,52.66
2023-05-22T15:41:35.494Z,53.06
2023-05-22T15:43:35.986Z,54.05
2023-05-22T15:45:36.329Z,54.94
2023-05-22T15:47:36.731Z,55.36
2023-05-22T15:49:37.057Z,55.76
2023-05-22T15:51:37.348Z,56.35
2023-05-22T15:53:37.628Z,56.23
2023-05-22T15:55:38.297Z,56.52
2023-05-22T15:57:38.893Z,56.82
2023-05-22T15:59:39.273Z,57.71
2023-05-22T16:01:39.679Z,57.71
2023-05-22T16:03:40.098Z,57.81
2023-05-22T16:05:40.665Z,57.74
2023-05-22T16:07:41.154Z,57.84
2023-05-22T16:09:41.443Z,57.76
2023-05-22T16:11:41.793Z,57.89
2023-05-22T16:13:42.181Z,58.72
2023-05-22T16:15:43.094Z,59.31
2023-05-22T16:17:43.755Z,60.13
2023-05-22T16:19:44.081Z,61.94
2023-05-22T16:21:44.424Z,61.98
2023-05-22T16:23:44.728Z,61.80
2023-05-22T16:25:45.130Z,62.80
2023-05-22T16:27:45.451Z,62.60
2023-05-22T16:29:45.765Z,62.70
2023-05-22T16:31:46.470Z,62.30
2023-05-22T16:33:47.040Z,62.80
2023-05-22T16:35:47.356Z,63.10
2023-05-22T16:37:47.757Z,63.33
2023-05-22T16:39:48.225Z,62.83
2023-05-22T16:41:50.109Z,63.03
2023-05-22T16:43:53.597Z,62.76
2023-05-22T16:45:55.895Z,62.66
2023-05-22T16:47:56.367Z,62.96
2023-05-22T16:49:56.590Z,63.19
2023-05-22T16:51:56.934Z,63.79
2023-05-22T16:53:57.244Z,62.89
2023-05-22T16:55:57.565Z,63.72
2023-05-22T16:57:57.875Z,64.12
2023-05-22T16:59:58.512Z,64.42
2023-05-22T17:01:59.095Z,64.54
2023-05-22T17:03:59.606Z,64.87
2023-05-22T17:06:00.016Z,65.70
2023-05-22T17:08:00.265Z,65.73
2023-05-22T17:10:00.723Z,66.24
2023-05-22T17:12:01.014Z,66.66
2023-05-22T17:14:01.409Z,67.16
2023-05-22T17:16:02.510Z,67.19
2023-05-22T17:18:03.179Z,67.99
2023-05-22T17:20:03.672Z,68.40
2023-05-22T17:22:04.173Z,68.49
2023-05-22T17:24:04.480Z,68.70
2023-05-22T17:26:04.844Z,68.79
2023-05-22T17:28:05.171Z,69.49
2023-05-22T17:30:05.941Z,70.29
2023-05-22T17:32:06.309Z,71.19
2023-05-22T17:34:06.652Z,71.59
2023-05-22T17:36:07.155Z,72.02
2023-05-22T17:38:07.411Z,72.32
2023-05-22T17:40:07.722Z,72.32
2023-05-22T17:42:08.084Z,72.13
2023-05-22T17:44:08.642Z,72.92
2023-05-22T17:46:09.003Z,75.05
2023-05-22T17:48:09.326Z,77.25
2023-05-22T17:50:09.597Z,79.46
2023-05-22T17:52:10.061Z,81.59
2023-05-22T17:54:12.188Z,81.23
2023-05-22T17:56:12.422Z,82.73
2023-05-22T17:58:12.802Z,80.97
2023-05-22T18:00:13.079Z,81.27
2023-05-22T18:02:13.504Z,81.01
2023-05-22T18:04:13.802Z,84.51
2023-05-22T18:06:14.202Z,84.91
2023-05-22T18:08:14.568Z,86.11
2023-05-22T18:10:14.926Z,87.16
2023-05-22T18:12:30.224Z,85.55
2023-05-22T18:14:20.378Z,87.66
2023-05-22T18:16:20.758Z,85.49
2023-05-22T18:18:21.022Z,85.19
2023-05-22T18:20:21.338Z,84.69
2023-05-22T18:22:21.650Z,85.39
2023-05-22T18:24:24.366Z,85.30
2023-05-22T18:26:25.325Z,85.80
2023-05-22T18:28:25.636Z,85.99
2023-05-22T18:30:26.004Z,84.89
2023-05-22T18:32:26.292Z,84.45
2023-05-22T18:34:26.615Z,84.75
2023-05-22T18:36:26.933Z,83.75
2023-05-22T18:38:27.234Z,84.15
2023-05-22T18:40:27.649Z,84.05
2023-05-22T18:42:27.958Z,84.65
2023-05-22T18:44:28.268Z,83.65
2023-05-22T18:46:28.612Z,84.05
2023-05-22T18:48:28.885Z,83.55
2023-05-22T18:50:29.488Z,83.79
2023-05-22T18:52:29.748Z,83.29
2023-05-22T18:54:30.098Z,83.79
2023-05-22T18:56:30.471Z,83.89
2023-05-22T18:58:30.732Z,83.69
2023-05-22T19:00:31.017Z,84.39
2023-05-22T19:02:31.315Z,83.39
2023-05-22T19:04:31.670Z,84.19
2023-05-22T19:06:31.980Z,84.59
2023-05-22T19:08:32.630Z,84.83
2023-05-22T19:10:32.872Z,84.83
2023-05-22T19:12:33.306Z,85.13
2023-05-22T19:14:33.588Z,84.93
2023-05-22T19:16:33.949Z,85.13
2023-05-22T19:18:34.228Z,84.93
2023-05-22T19:20:34.578Z,85.13
2023-05-22T19:22:34.892Z,85.13
2023-05-22T19:24:35.160Z,85.24
2023-05-22T19:26:35.470Z,85.24
2023-05-22T19:28:35.886Z,85.24
2023-05-22T19:30:36.243Z,85.24
2023-05-22T19:32:36.640Z,85.44
2023-05-22T19:34:36.941Z,85.53
2023-05-22T19:36:37.356Z,85.58
2023-05-22T19:38:37.658Z,85.47
2023-05-22T19:40:38.123Z,85.68
2023-05-22T19:42:38.563Z,85.88
2023-05-22T19:44:38.995Z,86.08
2023-05-22T19:46:39.329Z,85.88
2023-05-22T19:48:39.731Z,86.08
2023-05-22T19:50:40.254Z,85.52
2023-05-22T19:52:40.756Z,85.41
2023-05-22T19:54:41.004Z,84.88
2023-05-22T19:56:41.548Z,84.88
2023-05-22T19:58:41.882Z,85.22
2023-05-22T20:00:42.671Z,85.31
2023-05-22T20:02:43.431Z,85.52
2023-05-22T20:04:43.890Z,85.52
2023-05-22T20:06:44.193Z,85.72
2023-05-22T20:08:44.780Z,85.72
2023-05-22T20:10:45.040Z,85.82
2023-05-22T20:12:45.377Z,86.02
2023-05-22T20:14:45.639Z,86.02
2023-05-22T20:16:46.337Z,86.56
2023-05-22T20:18:47.182Z,86.96
2023-05-22T20:20:47.723Z,86.96
2023-05-22T20:22:49.002Z,87.16
2023-05-22T20:24:49.345Z,87.16
2023-05-22T20:27:35.109Z,87.26
2023-05-22T20:29:35.536Z,87.06
2023-05-22T20:31:36.015Z,87.26
2023-05-22T20:33:36.591Z,87.46
2023-05-22T20:35:37.170Z,87.46
2023-05-22T20:37:37.616Z,87.46
2023-05-22T20:39:38.094Z,87.66
2023-05-22T20:41:38.506Z,88.07
2023-05-22T20:43:38.878Z,87.87
2023-05-22T20:45:39.366Z,88.11
2023-05-22T20:47:39.828Z,88.21
2023-05-22T20:49:40.256Z,88.51
2023-05-22T20:51:40.616Z,88.71
2023-05-22T20:53:41.032Z,89.11
2023-05-22T20:55:41.626Z,89.01
2023-05-22T20:57:42.102Z,89.31
2023-05-22T20:59:42.466Z,89.26
2023-05-22T21:01:42.777Z,89.76
2023-05-22T21:03:43.215Z,89.96
2023-05-22T21:05:43.620Z,89.76
2023-05-22T21:07:43.890Z,89.86
2023-05-22T21:09:49.054Z,89.76
2023-05-22T21:11:49.433Z,89.46
2023-05-22T21:13:49.698Z,89.66
2023-05-22T21:15:50.022Z,89.46
2023-05-22T21:17:50.521Z,89.46
2023-05-22T21:19:50.856Z,89.66
2023-05-22T21:21:51.236Z,89.96
2023-05-22T21:23:51.600Z,89.96
2023-05-22T21:25:51.895Z,90.16
2023-05-22T21:27:52.199Z,89.76
2023-05-22T21:29:52.496Z,89.66
2023-05-22T21:31:53.064Z,89.56
2023-05-22T21:33:53.462Z,89.56
2023-05-22T21:35:53.746Z,89.46
2023-05-22T21:37:54.169Z,89.15
2023-05-22T21:39:54.686Z,88.91
2023-05-22T21:41:55.383Z,88.81
2023-05-22T21:43:55.736Z,88.71
2023-05-22T21:45:56.022Z,88.61
2023-05-22T21:47:56.445Z,88.61
2023-05-22T21:49:56.710Z,88.31
2023-05-22T21:51:57.030Z,88.31
2023-05-22T21:53:57.466Z,88.41
2023-05-22T21:55:57.742Z,88.51
2023-05-22T21:57:58.088Z,88.61
2023-05-22T21:59:58.391Z,88.65
2023-05-22T22:01:58.859Z,88.75
2023-05-22T22:03:59.173Z,88.85
2023-05-22T22:05:59.471Z,89.15
2023-05-22T22:07:59.749Z,89.15
2023-05-22T22:10:00.251Z,89.50
2023-05-22T22:12:00.543Z,89.50
2023-05-22T22:14:00.796Z,89.60
2023-05-22T22:16:01.238Z,89.50
2023-05-22T22:18:01.605Z,89.50
2023-05-22T22:20:01.910Z,89.40
2023-05-22T22:22:02.195Z,89.50
2023-05-22T22:24:02.500Z,89.30
2023-05-22T22:26:02.914Z,89.20
2023-05-22T22:28:03.168Z,89.10
2023-05-22T22:30:03.724Z,89.00
2023-05-22T22:32:04.058Z,89.20
2023-05-22T22:34:04.310Z,89.24
2023-05-22T22:36:04.570Z,89.34
2023-05-22T22:38:04.905Z,89.34
2023-05-22T22:40:05.202Z,89.34
2023-05-22T22:42:05.587Z,89.24
2023-05-22T22:44:05.881Z,89.44
2023-05-22T22:46:06.176Z,89.75
2023-05-22T22:48:06.488Z,89.79
2023-05-22T22:50:06.783Z,89.79
2023-05-22T22:52:07.079Z,89.99
2023-05-22T22:54:07.456Z,90.19
2023-05-22T22:56:07.897Z,90.29
2023-05-22T22:58:08.289Z,90.09
2023-05-22T23:00:08.568Z,90.09
2023-05-22T23:02:09.132Z,90.09
2023-05-22T23:04:09.492Z,90.23
2023-05-22T23:06:09.824Z,90.73
2023-05-22T23:08:10.110Z,90.73
2023-05-22T23:10:10.553Z,90.73
2023-05-22T23:12:10.844Z,90.73
2023-05-22T23:14:11.254Z,90.53
2023-05-22T23:16:11.664Z,90.84
2023-05-22T23:18:11.929Z,91.14
2023-05-22T23:20:12.337Z,91.18
2023-05-22T23:22:12.644Z,91.18
2023-05-22T23:24:12.940Z,91.28
2023-05-22T23:26:13.252Z,91.28
2023-05-22T23:28:13.665Z,91.38
2023-05-22T23:30:14.068Z,91.49
2023-05-22T23:32:14.948Z,91.28
2023-05-22T23:34:19.495Z,91.28
2023-05-22T23:36:19.796Z,91.38
2023-05-22T23:38:20.088Z,91.58
2023-05-22T23:40:20.361Z,91.49
2023-05-22T23:42:20.646Z,91.49
2023-05-22T23:44:21.130Z,91.38
2023-05-22T23:46:21.550Z,91.38
2023-05-22T23:48:21.927Z,91.58
2023-05-22T23:50:22.227Z,91.49
2023-05-22T23:52:22.660Z,91.73
2023-05-22T23:54:22.943Z,91.63
2023-05-22T23:56:23.246Z,91.49
2023-05-22T23:58:23.554Z,91.28
